sensor_id;sensor_type;location;lat;lon;timestamp;temperature;humidity
23803;DHT22;12082;51.786;6.018;2023-07-29T00:01:11;17.70;99.90
23803;DHT22;12082;51.786;6.018;2023-07-29T00:03:37;17.70;99.90
23803;DHT22;12082;51.786;6.018;2023-07-29T00:06:03;17.60;99.90
23803;DHT22;12082;51.786;6.018;2023-07-29T00:08:28;17.60;99.90
23803;DHT22;12082;51.786;6.018;2023-07-29T00:10:54;17.60;99.90
23803;DHT22;12082;51.786;6.018;2023-07-29T00:13:19;17.50;99.90
23803;DHT22;12082;51.786;6.018;2023-07-29T00:15:45;17.50;99.90
23803;DHT22;12082;51.786;6.018;2023-07-29T00:18:10;17.50;99.90
23803;DHT22;12082;51.786;6.018;2023-07-29T00:20:36;17.40;99.90
23803;DHT22;12082;51.786;6.018;2023-07-29T00:23:01;17.40;99.90
23803;DHT22;12082;51.786;6.018;2023-07-29T00:25:28;17.40;99.90
23803;DHT22;12082;51.786;6.018;2023-07-29T00:27:56;17.40;99.90
23803;DHT22;12082;51.786;6.018;2023-07-29T00:30:22;17.30;99.90
23803;DHT22;12082;51.786;6.018;2023-07-29T00:32:47;17.20;99.90
23803;DHT22;12082;51.786;6.018;2023-07-29T00:35:13;17.20;99.90
23803;DHT22;12082;51.786;6.018;2023-07-29T00:37:38;17.10;99.90
23803;DHT22;12082;51.786;6.018;2023-07-29T00:40:20;17.00;99.90
23803;DHT22;12082;51.786;6.018;2023-07-29T00:42:46;17.00;99.90
23803;DHT22;12082;51.786;6.018;2023-07-29T00:45:12;16.90;99.90
23803;DHT22;12082;51.786;6.018;2023-07-29T00:47:38;17.00;99.90
23803;DHT22;12082;51.786;6.018;2023-07-29T00:50:08;17.00;99.90
23803;DHT22;12082;51.786;6.018;2023-07-29T00:52:35;17.00;99.90
23803;DHT22;12082;51.786;6.018;2023-07-29T00:55:00;17.00;99.90
23803;DHT22;12082;51.786;6.018;2023-07-29T00:57:26;17.00;99.90
23803;DHT22;12082;51.786;6.018;2023-07-29T00:59:54;17.00;99.90
23803;DHT22;12082;51.786;6.018;2023-07-29T01:02:20;17.10;99.90
23803;DHT22;12082;51.786;6.018;2023-07-29T01:04:45;17.10;99.90
23803;DHT22;12082;51.786;6.018;2023-07-29T01:07:14;17.20;99.90
23803;DHT22;12082;51.786;6.018;2023-07-29T01:12:54;17.20;99.90
23803;DHT22;12082;51.786;6.018;2023-07-29T01:18:05;17.10;99.90
23803;DHT22;12082;51.786;6.018;2023-07-29T01:20:37;17.10;99.90
23803;DHT22;12082;51.786;6.018;2023-07-29T01:23:04;17.10;99.90
23803;DHT22;12082;51.786;6.018;2023-07-29T01:25:29;17.10;99.90
23803;DHT22;12082;51.786;6.018;2023-07-29T01:27:55;17.10;99.90
23803;DHT22;12082;51.786;6.018;2023-07-29T01:30:28;17.00;99.90
23803;DHT22;12082;51.786;6.018;2023-07-29T01:32:59;17.00;99.90
23803;DHT22;12082;51.786;6.018;2023-07-29T01:35:33;16.90;99.90
23803;DHT22;12082;51.786;6.018;2023-07-29T01:38:09;16.90;99.90
23803;DHT22;12082;51.786;6.018;2023-07-29T01:40:39;16.80;99.90
23803;DHT22;12082;51.786;6.018;2023-07-29T01:43:06;16.70;99.90
23803;DHT22;12082;51.786;6.018;2023-07-29T01:45:33;16.60;99.90
23803;DHT22;12082;51.786;6.018;2023-07-29T01:48:04;16.50;99.90
23803;DHT22;12082;51.786;6.018;2023-07-29T01:50:29;16.50;99.90
23803;DHT22;12082;51.786;6.018;2023-07-29T01:52:57;16.40;99.90
23803;DHT22;12082;51.786;6.018;2023-07-29T01:55:23;16.50;99.90
23803;DHT22;12082;51.786;6.018;2023-07-29T01:57:48;16.40;99.90
23803;DHT22;12082;51.786;6.018;2023-07-29T02:00:14;16.50;99.90
23803;DHT22;12082;51.786;6.018;2023-07-29T02:02:40;16.30;99.90
23803;DHT22;12082;51.786;6.018;2023-07-29T02:05:05;16.50;99.90
23803;DHT22;12082;51.786;6.018;2023-07-29T02:07:31;16.50;99.90
23803;DHT22;12082;51.786;6.018;2023-07-29T02:09:56;16.50;99.90
23803;DHT22;12082;51.786;6.018;2023-07-29T02:12:22;16.70;99.90
23803;DHT22;12082;51.786;6.018;2023-07-29T02:14:48;16.70;99.90
23803;DHT22;12082;51.786;6.018;2023-07-29T02:17:13;16.80;99.90
23803;DHT22;12082;51.786;6.018;2023-07-29T02:19:39;16.70;99.90
23803;DHT22;12082;51.786;6.018;2023-07-29T02:22:04;16.80;99.90
23803;DHT22;12082;51.786;6.018;2023-07-29T02:24:30;16.90;99.90
23803;DHT22;12082;51.786;6.018;2023-07-29T02:26:55;16.90;99.90
23803;DHT22;12082;51.786;6.018;2023-07-29T02:29:21;17.00;99.90
23803;DHT22;12082;51.786;6.018;2023-07-29T02:31:47;17.10;99.90
23803;DHT22;12082;51.786;6.018;2023-07-29T02:34:13;17.10;99.90
23803;DHT22;12082;51.786;6.018;2023-07-29T02:36:38;17.20;99.90
23803;DHT22;12082;51.786;6.018;2023-07-29T02:39:04;17.10;99.90
23803;DHT22;12082;51.786;6.018;2023-07-29T02:41:29;17.20;99.90
23803;DHT22;12082;51.786;6.018;2023-07-29T02:43:55;17.20;99.90
23803;DHT22;12082;51.786;6.018;2023-07-29T02:46:20;17.20;99.90
23803;DHT22;12082;51.786;6.018;2023-07-29T02:48:46;17.20;99.90
23803;DHT22;12082;51.786;6.018;2023-07-29T02:51:11;17.20;99.90
23803;DHT22;12082;51.786;6.018;2023-07-29T02:53:37;17.20;99.90
23803;DHT22;12082;51.786;6.018;2023-07-29T02:56:04;16.80;99.90
23803;DHT22;12082;51.786;6.018;2023-07-29T02:58:29;17.10;99.90
23803;DHT22;12082;51.786;6.018;2023-07-29T03:01:02;17.10;99.90
23803;DHT22;12082;51.786;6.018;2023-07-29T03:03:28;17.10;99.90
23803;DHT22;12082;51.786;6.018;2023-07-29T03:06:01;17.10;99.90
23803;DHT22;12082;51.786;6.018;2023-07-29T03:08:27;17.20;99.90
23803;DHT22;12082;51.786;6.018;2023-07-29T03:10:53;17.20;99.90
23803;DHT22;12082;51.786;6.018;2023-07-29T03:13:19;17.20;99.90
23803;DHT22;12082;51.786;6.018;2023-07-29T03:15:44;17.20;99.90
23803;DHT22;12082;51.786;6.018;2023-07-29T03:18:10;17.20;99.90
23803;DHT22;12082;51.786;6.018;2023-07-29T03:20:35;17.20;99.90
23803;DHT22;12082;51.786;6.018;2023-07-29T03:23:01;18.00;99.90
23803;DHT22;12082;51.786;6.018;2023-07-29T03:25:26;17.10;99.90
23803;DHT22;12082;51.786;6.018;2023-07-29T03:27:52;17.10;99.90
23803;DHT22;12082;51.786;6.018;2023-07-29T03:30:21;17.10;99.90
23803;DHT22;12082;51.786;6.018;2023-07-29T03:32:48;17.10;99.90
23803;DHT22;12082;51.786;6.018;2023-07-29T03:35:14;17.00;99.90
23803;DHT22;12082;51.786;6.018;2023-07-29T03:37:40;17.00;99.90
23803;DHT22;12082;51.786;6.018;2023-07-29T03:40:06;16.90;99.90
23803;DHT22;12082;51.786;6.018;2023-07-29T03:42:32;16.90;99.90
23803;DHT22;12082;51.786;6.018;2023-07-29T03:44:58;16.90;99.90
23803;DHT22;12082;51.786;6.018;2023-07-29T03:47:23;16.90;99.90
23803;DHT22;12082;51.786;6.018;2023-07-29T03:49:49;16.80;99.90
23803;DHT22;12082;51.786;6.018;2023-07-29T03:52:15;16.80;99.90
23803;DHT22;12082;51.786;6.018;2023-07-29T03:54:40;16.80;99.90
23803;DHT22;12082;51.786;6.018;2023-07-29T03:57:06;16.80;99.90
23803;DHT22;12082;51.786;6.018;2023-07-29T03:59:32;16.70;99.90
23803;DHT22;12082;51.786;6.018;2023-07-29T04:01:58;16.70;99.90
23803;DHT22;12082;51.786;6.018;2023-07-29T04:04:24;16.70;99.90
23803;DHT22;12082;51.786;6.018;2023-07-29T04:06:49;16.70;99.90
23803;DHT22;12082;51.786;6.018;2023-07-29T04:09:15;16.70;99.90
23803;DHT22;12082;51.786;6.018;2023-07-29T04:11:40;16.60;99.90
23803;DHT22;12082;51.786;6.018;2023-07-29T04:14:06;16.60;99.90
23803;DHT22;12082;51.786;6.018;2023-07-29T04:16:31;16.50;99.90
23803;DHT22;12082;51.786;6.018;2023-07-29T04:18:57;16.50;99.90
23803;DHT22;12082;51.786;6.018;2023-07-29T04:21:23;16.50;99.90
23803;DHT22;12082;51.786;6.018;2023-07-29T04:23:48;16.50;99.90
23803;DHT22;12082;51.786;6.018;2023-07-29T04:26:14;16.50;99.90
23803;DHT22;12082;51.786;6.018;2023-07-29T04:28:39;16.50;99.90
23803;DHT22;12082;51.786;6.018;2023-07-29T04:31:05;16.40;99.90
23803;DHT22;12082;51.786;6.018;2023-07-29T04:33:31;16.30;99.90
23803;DHT22;12082;51.786;6.018;2023-07-29T04:35:57;16.30;99.90
23803;DHT22;12082;51.786;6.018;2023-07-29T04:38:24;16.30;99.90
23803;DHT22;12082;51.786;6.018;2023-07-29T04:40:50;16.20;99.90
23803;DHT22;12082;51.786;6.018;2023-07-29T04:43:15;16.20;99.90
23803;DHT22;12082;51.786;6.018;2023-07-29T04:45:44;16.20;99.90
23803;DHT22;12082;51.786;6.018;2023-07-29T04:48:09;16.20;99.90
23803;DHT22;12082;51.786;6.018;2023-07-29T04:50:35;16.20;99.90
23803;DHT22;12082;51.786;6.018;2023-07-29T04:53:00;16.30;99.90
23803;DHT22;12082;51.786;6.018;2023-07-29T04:55:26;16.30;99.90
23803;DHT22;12082;51.786;6.018;2023-07-29T04:57:51;16.40;99.90
23803;DHT22;12082;51.786;6.018;2023-07-29T05:00:17;16.50;99.90
23803;DHT22;12082;51.786;6.018;2023-07-29T05:02:43;16.60;99.90
23803;DHT22;12082;51.786;6.018;2023-07-29T05:05:08;16.60;99.90
23803;DHT22;12082;51.786;6.018;2023-07-29T05:07:34;16.40;99.90
23803;DHT22;12082;51.786;6.018;2023-07-29T05:09:59;16.60;99.90
23803;DHT22;12082;51.786;6.018;2023-07-29T05:12:25;16.60;99.90
23803;DHT22;12082;51.786;6.018;2023-07-29T05:14:50;16.70;99.90
23803;DHT22;12082;51.786;6.018;2023-07-29T05:17:16;16.70;99.90
23803;DHT22;12082;51.786;6.018;2023-07-29T05:19:42;16.80;99.90
23803;DHT22;12082;51.786;6.018;2023-07-29T05:22:07;16.80;99.90
23803;DHT22;12082;51.786;6.018;2023-07-29T05:24:33;16.90;99.90
23803;DHT22;12082;51.786;6.018;2023-07-29T05:26:58;16.90;99.90
23803;DHT22;12082;51.786;6.018;2023-07-29T05:29:24;17.10;99.90
23803;DHT22;12082;51.786;6.018;2023-07-29T05:31:49;17.00;99.90
23803;DHT22;12082;51.786;6.018;2023-07-29T05:34:15;17.00;99.90
23803;DHT22;12082;51.786;6.018;2023-07-29T05:36:40;17.00;99.90
23803;DHT22;12082;51.786;6.018;2023-07-29T05:39:06;17.00;99.90
23803;DHT22;12082;51.786;6.018;2023-07-29T05:41:32;16.90;99.90
23803;DHT22;12082;51.786;6.018;2023-07-29T05:43:58;16.90;99.90
23803;DHT22;12082;51.786;6.018;2023-07-29T05:46:23;16.90;99.90
23803;DHT22;12082;51.786;6.018;2023-07-29T05:48:49;16.90;99.90
23803;DHT22;12082;51.786;6.018;2023-07-29T05:51:14;16.90;99.90
23803;DHT22;12082;51.786;6.018;2023-07-29T05:53:40;16.90;99.90
23803;DHT22;12082;51.786;6.018;2023-07-29T05:56:06;16.90;99.90
23803;DHT22;12082;51.786;6.018;2023-07-29T05:58:31;16.90;99.90
23803;DHT22;12082;51.786;6.018;2023-07-29T06:00:57;16.90;99.90
23803;DHT22;12082;51.786;6.018;2023-07-29T06:03:23;16.90;99.90
23803;DHT22;12082;51.786;6.018;2023-07-29T06:05:49;17.10;99.90
23803;DHT22;12082;51.786;6.018;2023-07-29T06:08:15;17.00;99.90
23803;DHT22;12082;51.786;6.018;2023-07-29T06:10:40;17.00;99.90
23803;DHT22;12082;51.786;6.018;2023-07-29T06:13:06;17.00;99.90
23803;DHT22;12082;51.786;6.018;2023-07-29T06:15:31;17.00;99.90
23803;DHT22;12082;51.786;6.018;2023-07-29T06:17:57;17.00;99.90
23803;DHT22;12082;51.786;6.018;2023-07-29T06:20:23;17.00;99.90
23803;DHT22;12082;51.786;6.018;2023-07-29T06:22:48;17.20;99.90
23803;DHT22;12082;51.786;6.018;2023-07-29T06:25:14;17.20;99.90
23803;DHT22;12082;51.786;6.018;2023-07-29T06:27:39;17.20;99.90
23803;DHT22;12082;51.786;6.018;2023-07-29T06:30:05;17.30;99.90
23803;DHT22;12082;51.786;6.018;2023-07-29T06:32:31;17.30;99.90
23803;DHT22;12082;51.786;6.018;2023-07-29T06:34:57;17.50;99.90
23803;DHT22;12082;51.786;6.018;2023-07-29T06:37:23;18.30;99.90
23803;DHT22;12082;51.786;6.018;2023-07-29T06:39:48;18.80;99.90
23803;DHT22;12082;51.786;6.018;2023-07-29T06:42:14;18.90;99.90
23803;DHT22;12082;51.786;6.018;2023-07-29T06:44:40;18.70;99.90
23803;DHT22;12082;51.786;6.018;2023-07-29T06:47:06;19.20;99.90
23803;DHT22;12082;51.786;6.018;2023-07-29T06:49:32;18.90;99.90
23803;DHT22;12082;51.786;6.018;2023-07-29T06:51:58;18.50;99.90
23803;DHT22;12082;51.786;6.018;2023-07-29T06:54:26;18.50;99.90
23803;DHT22;12082;51.786;6.018;2023-07-29T06:56:52;18.40;99.90
23803;DHT22;12082;51.786;6.018;2023-07-29T06:59:17;18.40;99.90
23803;DHT22;12082;51.786;6.018;2023-07-29T07:01:43;18.50;99.90
23803;DHT22;12082;51.786;6.018;2023-07-29T07:04:08;18.40;99.90
23803;DHT22;12082;51.786;6.018;2023-07-29T07:06:34;18.70;99.90
23803;DHT22;12082;51.786;6.018;2023-07-29T07:08:59;19.20;99.90
23803;DHT22;12082;51.786;6.018;2023-07-29T07:11:25;19.40;99.90
23803;DHT22;12082;51.786;6.018;2023-07-29T07:13:51;19.20;99.90
23803;DHT22;12082;51.786;6.018;2023-07-29T07:16:16;19.70;99.90
23803;DHT22;12082;51.786;6.018;2023-07-29T07:18:42;19.70;99.90
23803;DHT22;12082;51.786;6.018;2023-07-29T07:21:07;20.00;99.90
23803;DHT22;12082;51.786;6.018;2023-07-29T07:23:33;20.50;99.90
23803;DHT22;12082;51.786;6.018;2023-07-29T07:25:58;21.00;99.90
23803;DHT22;12082;51.786;6.018;2023-07-29T07:28:24;21.20;99.90
23803;DHT22;12082;51.786;6.018;2023-07-29T07:30:49;21.10;99.90
23803;DHT22;12082;51.786;6.018;2023-07-29T07:33:15;21.60;99.90
23803;DHT22;12082;51.786;6.018;2023-07-29T07:35:40;21.60;99.90
23803;DHT22;12082;51.786;6.018;2023-07-29T07:38:08;22.00;99.90
23803;DHT22;12082;51.786;6.018;2023-07-29T07:40:35;21.50;99.90
23803;DHT22;12082;51.786;6.018;2023-07-29T07:43:01;21.70;99.90
23803;DHT22;12082;51.786;6.018;2023-07-29T07:45:27;21.30;99.90
23803;DHT22;12082;51.786;6.018;2023-07-29T07:47:53;20.90;99.90
23803;DHT22;12082;51.786;6.018;2023-07-29T07:50:19;20.80;99.90
23803;DHT22;12082;51.786;6.018;2023-07-29T07:52:45;20.70;99.90
23803;DHT22;12082;51.786;6.018;2023-07-29T07:55:11;20.80;99.90
23803;DHT22;12082;51.786;6.018;2023-07-29T07:57:36;20.50;99.90
23803;DHT22;12082;51.786;6.018;2023-07-29T08:00:02;20.40;99.90
23803;DHT22;12082;51.786;6.018;2023-07-29T08:02:29;20.30;99.90
23803;DHT22;12082;51.786;6.018;2023-07-29T08:04:55;19.80;99.90
23803;DHT22;12082;51.786;6.018;2023-07-29T08:07:20;19.70;99.90
23803;DHT22;12082;51.786;6.018;2023-07-29T08:09:46;20.00;99.90
23803;DHT22;12082;51.786;6.018;2023-07-29T08:12:11;19.80;99.90
23803;DHT22;12082;51.786;6.018;2023-07-29T08:14:37;19.90;99.90
23803;DHT22;12082;51.786;6.018;2023-07-29T08:17:03;20.00;99.90
23803;DHT22;12082;51.786;6.018;2023-07-29T08:19:28;20.00;99.90
23803;DHT22;12082;51.786;6.018;2023-07-29T08:21:54;19.70;99.90
23803;DHT22;12082;51.786;6.018;2023-07-29T08:24:19;19.50;99.90
23803;DHT22;12082;51.786;6.018;2023-07-29T08:26:45;19.50;99.90
23803;DHT22;12082;51.786;6.018;2023-07-29T08:29:11;19.40;99.90
23803;DHT22;12082;51.786;6.018;2023-07-29T08:31:37;19.50;99.90
23803;DHT22;12082;51.786;6.018;2023-07-29T08:34:03;19.50;99.90
23803;DHT22;12082;51.786;6.018;2023-07-29T08:36:28;19.40;99.90
23803;DHT22;12082;51.786;6.018;2023-07-29T08:38:54;19.40;99.90
23803;DHT22;12082;51.786;6.018;2023-07-29T08:41:25;19.40;99.90
23803;DHT22;12082;51.786;6.018;2023-07-29T08:46:16;19.60;99.90
23803;DHT22;12082;51.786;6.018;2023-07-29T08:48:43;19.80;99.90
23803;DHT22;12082;51.786;6.018;2023-07-29T08:51:10;20.00;99.90
23803;DHT22;12082;51.786;6.018;2023-07-29T08:53:37;20.30;99.90
23803;DHT22;12082;51.786;6.018;2023-07-29T08:56:03;20.30;99.90
23803;DHT22;12082;51.786;6.018;2023-07-29T08:58:29;20.30;99.90
23803;DHT22;12082;51.786;6.018;2023-07-29T09:00:55;20.70;99.90
23803;DHT22;12082;51.786;6.018;2023-07-29T09:03:21;21.20;99.90
23803;DHT22;12082;51.786;6.018;2023-07-29T09:05:47;21.10;99.90
23803;DHT22;12082;51.786;6.018;2023-07-29T09:08:13;21.20;99.90
23803;DHT22;12082;51.786;6.018;2023-07-29T09:10:39;20.90;99.90
23803;DHT22;12082;51.786;6.018;2023-07-29T09:13:05;20.70;99.90
23803;DHT22;12082;51.786;6.018;2023-07-29T09:15:34;20.80;99.90
23803;DHT22;12082;51.786;6.018;2023-07-29T09:18:12;20.60;99.90
23803;DHT22;12082;51.786;6.018;2023-07-29T09:20:39;20.50;99.90
23803;DHT22;12082;51.786;6.018;2023-07-29T09:23:07;20.70;99.90
23803;DHT22;12082;51.786;6.018;2023-07-29T09:25:34;21.10;99.90
23803;DHT22;12082;51.786;6.018;2023-07-29T09:28:00;21.60;99.90
23803;DHT22;12082;51.786;6.018;2023-07-29T09:30:26;22.20;99.90
23803;DHT22;12082;51.786;6.018;2023-07-29T09:32:55;22.30;99.90
23803;DHT22;12082;51.786;6.018;2023-07-29T09:35:21;22.70;99.90
23803;DHT22;12082;51.786;6.018;2023-07-29T09:37:46;22.80;99.90
23803;DHT22;12082;51.786;6.018;2023-07-29T09:40:14;22.70;99.90
23803;DHT22;12082;51.786;6.018;2023-07-29T09:42:50;22.60;99.90
23803;DHT22;12082;51.786;6.018;2023-07-29T09:45:23;22.40;99.90
23803;DHT22;12082;51.786;6.018;2023-07-29T09:47:49;22.40;99.90
23803;DHT22;12082;51.786;6.018;2023-07-29T09:50:15;22.70;99.90
23803;DHT22;12082;51.786;6.018;2023-07-29T09:52:41;22.90;99.90
23803;DHT22;12082;51.786;6.018;2023-07-29T09:55:12;22.90;99.90
23803;DHT22;12082;51.786;6.018;2023-07-29T09:57:40;22.60;99.90
23803;DHT22;12082;51.786;6.018;2023-07-29T10:00:06;22.80;99.90
23803;DHT22;12082;51.786;6.018;2023-07-29T10:02:40;22.30;99.90
23803;DHT22;12082;51.786;6.018;2023-07-29T10:05:07;22.30;99.90
23803;DHT22;12082;51.786;6.018;2023-07-29T10:07:37;22.00;99.90
23803;DHT22;12082;51.786;6.018;2023-07-29T10:10:04;22.00;99.90
23803;DHT22;12082;51.786;6.018;2023-07-29T10:12:31;21.90;99.90
23803;DHT22;12082;51.786;6.018;2023-07-29T10:14:59;21.80;99.90
23803;DHT22;12082;51.786;6.018;2023-07-29T10:17:26;22.40;99.90
23803;DHT22;12082;51.786;6.018;2023-07-29T10:19:53;22.30;99.90
23803;DHT22;12082;51.786;6.018;2023-07-29T10:22:21;22.10;99.90
23803;DHT22;12082;51.786;6.018;2023-07-29T10:24:50;22.00;99.90
23803;DHT22;12082;51.786;6.018;2023-07-29T10:27:18;21.90;99.90
23803;DHT22;12082;51.786;6.018;2023-07-29T10:29:45;22.10;99.90
23803;DHT22;12082;51.786;6.018;2023-07-29T10:32:11;22.20;99.90
23803;DHT22;12082;51.786;6.018;2023-07-29T10:34:37;22.30;99.90
23803;DHT22;12082;51.786;6.018;2023-07-29T10:37:03;22.40;99.90
23803;DHT22;12082;51.786;6.018;2023-07-29T10:39:38;22.50;99.90
23803;DHT22;12082;51.786;6.018;2023-07-29T10:42:05;22.50;99.90
23803;DHT22;12082;51.786;6.018;2023-07-29T10:47:22;22.60;99.90
23803;DHT22;12082;51.786;6.018;2023-07-29T10:49:54;22.60;99.90
23803;DHT22;12082;51.786;6.018;2023-07-29T10:55:01;22.20;99.90
23803;DHT22;12082;51.786;6.018;2023-07-29T10:57:32;22.50;99.90
23803;DHT22;12082;51.786;6.018;2023-07-29T10:59:59;22.80;99.90
23803;DHT22;12082;51.786;6.018;2023-07-29T11:02:32;23.00;99.90
23803;DHT22;12082;51.786;6.018;2023-07-29T11:04:58;23.20;99.90
23803;DHT22;12082;51.786;6.018;2023-07-29T11:07:27;23.20;99.90
23803;DHT22;12082;51.786;6.018;2023-07-29T11:10:02;23.70;99.90
23803;DHT22;12082;51.786;6.018;2023-07-29T11:12:48;23.60;99.90
23803;DHT22;12082;51.786;6.018;2023-07-29T11:15:22;23.20;99.90
23803;DHT22;12082;51.786;6.018;2023-07-29T11:17:57;23.00;99.90
23803;DHT22;12082;51.786;6.018;2023-07-29T11:20:28;23.00;99.90
23803;DHT22;12082;51.786;6.018;2023-07-29T11:22:55;23.10;99.90
23803;DHT22;12082;51.786;6.018;2023-07-29T11:25:23;23.10;99.90
23803;DHT22;12082;51.786;6.018;2023-07-29T11:27:51;22.70;99.90
23803;DHT22;12082;51.786;6.018;2023-07-29T11:30:18;22.50;99.90
23803;DHT22;12082;51.786;6.018;2023-07-29T11:32:45;22.50;99.90
23803;DHT22;12082;51.786;6.018;2023-07-29T11:35:15;22.50;99.90
23803;DHT22;12082;51.786;6.018;2023-07-29T11:37:42;22.50;99.90
23803;DHT22;12082;51.786;6.018;2023-07-29T11:40:08;22.50;99.90
23803;DHT22;12082;51.786;6.018;2023-07-29T11:42:36;22.70;99.90
23803;DHT22;12082;51.786;6.018;2023-07-29T11:45:03;22.60;99.90
23803;DHT22;12082;51.786;6.018;2023-07-29T11:47:29;22.30;99.90
23803;DHT22;12082;51.786;6.018;2023-07-29T11:49:58;22.00;99.90
23803;DHT22;12082;51.786;6.018;2023-07-29T11:52:26;21.90;99.90
23803;DHT22;12082;51.786;6.018;2023-07-29T11:54:52;21.90;99.90
23803;DHT22;12082;51.786;6.018;2023-07-29T11:57:18;22.30;99.90
23803;DHT22;12082;51.786;6.018;2023-07-29T11:59:44;22.60;99.90
23803;DHT22;12082;51.786;6.018;2023-07-29T12:02:14;22.50;99.90
23803;DHT22;12082;51.786;6.018;2023-07-29T12:04:41;21.80;99.90
23803;DHT22;12082;51.786;6.018;2023-07-29T12:07:08;20.60;99.90
23803;DHT22;12082;51.786;6.018;2023-07-29T12:09:35;20.20;99.90
23803;DHT22;12082;51.786;6.018;2023-07-29T12:12:04;20.10;99.90
23803;DHT22;12082;51.786;6.018;2023-07-29T12:14:31;20.40;99.90
23803;DHT22;12082;51.786;6.018;2023-07-29T12:17:00;19.90;99.90
23803;DHT22;12082;51.786;6.018;2023-07-29T12:19:34;19.60;99.90
23803;DHT22;12082;51.786;6.018;2023-07-29T12:22:02;18.40;99.90
23803;DHT22;12082;51.786;6.018;2023-07-29T12:24:30;17.50;99.90
23803;DHT22;12082;51.786;6.018;2023-07-29T12:26:56;16.90;99.90
23803;DHT22;12082;51.786;6.018;2023-07-29T12:29:22;16.30;99.90
23803;DHT22;12082;51.786;6.018;2023-07-29T12:31:48;15.90;99.90
23803;DHT22;12082;51.786;6.018;2023-07-29T12:34:18;15.80;99.90
23803;DHT22;12082;51.786;6.018;2023-07-29T12:36:49;16.20;99.90
23803;DHT22;12082;51.786;6.018;2023-07-29T12:39:26;15.80;99.90
23803;DHT22;12082;51.786;6.018;2023-07-29T12:41:53;16.00;99.90
23803;DHT22;12082;51.786;6.018;2023-07-29T12:44:20;16.00;99.90
23803;DHT22;12082;51.786;6.018;2023-07-29T12:46:46;16.10;99.90
23803;DHT22;12082;51.786;6.018;2023-07-29T12:49:11;16.10;99.90
23803;DHT22;12082;51.786;6.018;2023-07-29T12:51:37;16.40;99.90
23803;DHT22;12082;51.786;6.018;2023-07-29T12:54:04;16.20;99.90
23803;DHT22;12082;51.786;6.018;2023-07-29T12:56:30;16.20;99.90
23803;DHT22;12082;51.786;6.018;2023-07-29T12:58:57;16.30;99.90
23803;DHT22;12082;51.786;6.018;2023-07-29T13:01:24;16.30;99.90
23803;DHT22;12082;51.786;6.018;2023-07-29T13:03:49;16.50;99.90
23803;DHT22;12082;51.786;6.018;2023-07-29T13:06:15;16.50;99.90
23803;DHT22;12082;51.786;6.018;2023-07-29T13:08:41;16.70;99.90
23803;DHT22;12082;51.786;6.018;2023-07-29T13:11:07;16.80;99.90
23803;DHT22;12082;51.786;6.018;2023-07-29T13:13:32;16.90;99.90
23803;DHT22;12082;51.786;6.018;2023-07-29T13:15:58;16.90;99.90
23803;DHT22;12082;51.786;6.018;2023-07-29T13:18:24;16.90;99.90
23803;DHT22;12082;51.786;6.018;2023-07-29T13:20:49;16.80;99.90
23803;DHT22;12082;51.786;6.018;2023-07-29T13:23:15;17.00;99.90
23803;DHT22;12082;51.786;6.018;2023-07-29T13:25:41;17.10;99.90
23803;DHT22;12082;51.786;6.018;2023-07-29T13:28:06;17.10;99.90
23803;DHT22;12082;51.786;6.018;2023-07-29T13:30:33;17.20;99.90
23803;DHT22;12082;51.786;6.018;2023-07-29T13:32:58;17.40;99.90
23803;DHT22;12082;51.786;6.018;2023-07-29T13:35:24;17.80;99.90
23803;DHT22;12082;51.786;6.018;2023-07-29T13:37:49;18.30;99.90
23803;DHT22;12082;51.786;6.018;2023-07-29T13:40:15;18.60;99.90
23803;DHT22;12082;51.786;6.018;2023-07-29T13:42:41;18.70;99.90
23803;DHT22;12082;51.786;6.018;2023-07-29T13:45:07;18.90;99.90
23803;DHT22;12082;51.786;6.018;2023-07-29T13:47:32;19.60;99.90
23803;DHT22;12082;51.786;6.018;2023-07-29T13:49:58;19.80;99.90
23803;DHT22;12082;51.786;6.018;2023-07-29T13:52:24;19.90;99.90
23803;DHT22;12082;51.786;6.018;2023-07-29T13:54:49;19.80;99.90
23803;DHT22;12082;51.786;6.018;2023-07-29T13:57:15;19.90;99.90
23803;DHT22;12082;51.786;6.018;2023-07-29T13:59:40;19.80;99.90
23803;DHT22;12082;51.786;6.018;2023-07-29T14:02:06;20.00;99.90
23803;DHT22;12082;51.786;6.018;2023-07-29T14:04:32;19.90;99.90
23803;DHT22;12082;51.786;6.018;2023-07-29T14:06:58;20.00;99.90
23803;DHT22;12082;51.786;6.018;2023-07-29T14:09:24;20.30;99.90
23803;DHT22;12082;51.786;6.018;2023-07-29T14:11:50;20.80;99.90
23803;DHT22;12082;51.786;6.018;2023-07-29T14:14:15;20.50;99.90
23803;DHT22;12082;51.786;6.018;2023-07-29T14:16:41;20.40;99.90
23803;DHT22;12082;51.786;6.018;2023-07-29T14:19:06;20.20;99.90
23803;DHT22;12082;51.786;6.018;2023-07-29T14:21:32;20.40;99.90
23803;DHT22;12082;51.786;6.018;2023-07-29T14:23:58;20.50;99.90
23803;DHT22;12082;51.786;6.018;2023-07-29T14:26:23;20.60;99.90
23803;DHT22;12082;51.786;6.018;2023-07-29T14:28:49;20.60;99.90
23803;DHT22;12082;51.786;6.018;2023-07-29T14:31:15;20.80;99.90
23803;DHT22;12082;51.786;6.018;2023-07-29T14:33:42;20.70;99.90
23803;DHT22;12082;51.786;6.018;2023-07-29T14:36:08;21.10;99.90
23803;DHT22;12082;51.786;6.018;2023-07-29T14:38:34;21.40;99.90
23803;DHT22;12082;51.786;6.018;2023-07-29T14:41:00;21.70;99.90
23803;DHT22;12082;51.786;6.018;2023-07-29T14:43:25;21.90;99.90
23803;DHT22;12082;51.786;6.018;2023-07-29T14:45:51;22.10;99.90
23803;DHT22;12082;51.786;6.018;2023-07-29T14:48:16;22.60;99.90
23803;DHT22;12082;51.786;6.018;2023-07-29T14:50:42;22.60;99.90
23803;DHT22;12082;51.786;6.018;2023-07-29T14:53:09;22.50;99.90
23803;DHT22;12082;51.786;6.018;2023-07-29T14:55:36;22.50;99.90
23803;DHT22;12082;51.786;6.018;2023-07-29T14:58:02;22.90;99.90
23803;DHT22;12082;51.786;6.018;2023-07-29T15:00:27;22.90;99.90
23803;DHT22;12082;51.786;6.018;2023-07-29T15:02:53;23.20;99.90
23803;DHT22;12082;51.786;6.018;2023-07-29T15:05:18;23.40;99.90
23803;DHT22;12082;51.786;6.018;2023-07-29T15:07:44;23.50;99.90
23803;DHT22;12082;51.786;6.018;2023-07-29T15:10:10;23.60;99.90
23803;DHT22;12082;51.786;6.018;2023-07-29T15:12:35;23.90;99.90
23803;DHT22;12082;51.786;6.018;2023-07-29T15:15:01;24.00;99.90
23803;DHT22;12082;51.786;6.018;2023-07-29T15:17:27;24.60;99.90
23803;DHT22;12082;51.786;6.018;2023-07-29T15:19:53;24.90;99.90
23803;DHT22;12082;51.786;6.018;2023-07-29T15:22:18;24.90;99.90
23803;DHT22;12082;51.786;6.018;2023-07-29T15:24:44;25.20;99.90
23803;DHT22;12082;51.786;6.018;2023-07-29T15:27:10;24.70;99.90
23803;DHT22;12082;51.786;6.018;2023-07-29T15:29:36;24.00;99.90
23803;DHT22;12082;51.786;6.018;2023-07-29T15:32:01;23.40;99.90
23803;DHT22;12082;51.786;6.018;2023-07-29T15:34:27;23.70;99.90
23803;DHT22;12082;51.786;6.018;2023-07-29T15:36:59;23.40;99.90
23803;DHT22;12082;51.786;6.018;2023-07-29T15:39:25;22.90;99.90